sensor_id;sensor_type;location;lat;lon;timestamp;temperature;humidity
43581;DHT22;29175;51.030;4.606;2023-03-31T00:01:18;12.50;99.90
43581;DHT22;29175;51.030;4.606;2023-03-31T00:03:44;12.50;99.90
43581;DHT22;29175;51.030;4.606;2023-03-31T00:06:11;12.50;99.90
43581;DHT22;29175;51.030;4.606;2023-03-31T00:08:43;12.50;99.90
43581;DHT22;29175;51.030;4.606;2023-03-31T00:11:09;12.50;99.90
43581;DHT22;29175;51.030;4.606;2023-03-31T00:13:37;12.80;99.90
43581;DHT22;29175;51.030;4.606;2023-03-31T00:16:05;12.60;99.90
43581;DHT22;29175;51.030;4.606;2023-03-31T00:18:32;12.60;99.90
43581;DHT22;29175;51.030;4.606;2023-03-31T00:21:21;12.50;99.90
43581;DHT22;29175;51.030;4.606;2023-03-31T00:23:55;12.80;99.90
43581;DHT22;29175;51.030;4.606;2023-03-31T00:26:21;12.90;99.90
43581;DHT22;29175;51.030;4.606;2023-03-31T00:28:48;12.90;99.90
43581;DHT22;29175;51.030;4.606;2023-03-31T00:31:14;12.90;99.90
43581;DHT22;29175;51.030;4.606;2023-03-31T00:33:41;12.80;99.90
43581;DHT22;29175;51.030;4.606;2023-03-31T00:36:07;12.90;99.90
43581;DHT22;29175;51.030;4.606;2023-03-31T00:38:33;13.00;99.90
43581;DHT22;29175;51.030;4.606;2023-03-31T00:40:59;13.00;99.90
43581;DHT22;29175;51.030;4.606;2023-03-31T00:45:51;12.70;99.90
43581;DHT22;29175;51.030;4.606;2023-03-31T00:48:18;12.70;99.90
43581;DHT22;29175;51.030;4.606;2023-03-31T00:50:50;12.70;99.90
43581;DHT22;29175;51.030;4.606;2023-03-31T00:53:19;12.60;99.90
43581;DHT22;29175;51.030;4.606;2023-03-31T00:55:52;12.50;99.90
43581;DHT22;29175;51.030;4.606;2023-03-31T00:58:20;12.50;99.90
43581;DHT22;29175;51.030;4.606;2023-03-31T01:00:48;12.50;99.90
43581;DHT22;29175;51.030;4.606;2023-03-31T01:03:15;12.40;99.90
43581;DHT22;29175;51.030;4.606;2023-03-31T01:05:48;12.20;99.90
43581;DHT22;29175;51.030;4.606;2023-03-31T01:08:17;12.20;99.90
43581;DHT22;29175;51.030;4.606;2023-03-31T01:10:53;12.20;99.90
43581;DHT22;29175;51.030;4.606;2023-03-31T01:13:20;12.20;99.90
43581;DHT22;29175;51.030;4.606;2023-03-31T01:15:47;12.20;99.90
43581;DHT22;29175;51.030;4.606;2023-03-31T01:18:13;12.10;99.90
43581;DHT22;29175;51.030;4.606;2023-03-31T01:23:34;12.10;99.90
43581;DHT22;29175;51.030;4.606;2023-03-31T01:28:42;12.10;99.90
43581;DHT22;29175;51.030;4.606;2023-03-31T01:31:40;12.00;99.90
43581;DHT22;29175;51.030;4.606;2023-03-31T01:42:27;12.30;99.90
43581;DHT22;29175;51.030;4.606;2023-03-31T01:45:02;12.10;99.90
43581;DHT22;29175;51.030;4.606;2023-03-31T01:50:24;12.10;99.90
43581;DHT22;29175;51.030;4.606;2023-03-31T01:53:17;12.00;99.90
43581;DHT22;29175;51.030;4.606;2023-03-31T01:58:35;12.20;99.90
43581;DHT22;29175;51.030;4.606;2023-03-31T02:01:08;12.20;99.90
43581;DHT22;29175;51.030;4.606;2023-03-31T02:03:42;12.20;99.90
43581;DHT22;29175;51.030;4.606;2023-03-31T02:06:18;12.10;99.90
43581;DHT22;29175;51.030;4.606;2023-03-31T02:08:54;12.10;99.90
43581;DHT22;29175;51.030;4.606;2023-03-31T02:11:22;12.10;99.90
43581;DHT22;29175;51.030;4.606;2023-03-31T02:13:51;12.30;99.90
43581;DHT22;29175;51.030;4.606;2023-03-31T02:16:25;12.30;99.90
43581;DHT22;29175;51.030;4.606;2023-03-31T02:18:57;12.20;99.90
43581;DHT22;29175;51.030;4.606;2023-03-31T02:21:31;12.10;99.90
43581;DHT22;29175;51.030;4.606;2023-03-31T02:24:00;12.20;99.90
43581;DHT22;29175;51.030;4.606;2023-03-31T02:26:39;12.20;99.90
43581;DHT22;29175;51.030;4.606;2023-03-31T02:29:06;12.20;99.90
43581;DHT22;29175;51.030;4.606;2023-03-31T02:34:40;12.30;99.90
43581;DHT22;29175;51.030;4.606;2023-03-31T02:37:06;12.40;99.90
43581;DHT22;29175;51.030;4.606;2023-03-31T02:39:34;12.20;99.90
43581;DHT22;29175;51.030;4.606;2023-03-31T02:42:04;12.10;99.90
43581;DHT22;29175;51.030;4.606;2023-03-31T02:44:37;12.40;99.90
43581;DHT22;29175;51.030;4.606;2023-03-31T02:47:04;12.50;99.90
43581;DHT22;29175;51.030;4.606;2023-03-31T02:49:32;12.30;99.90
43581;DHT22;29175;51.030;4.606;2023-03-31T02:57:34;12.10;99.90
43581;DHT22;29175;51.030;4.606;2023-03-31T03:05:52;11.90;99.90
43581;DHT22;29175;51.030;4.606;2023-03-31T03:11:45;11.90;99.90
43581;DHT22;29175;51.030;4.606;2023-03-31T03:14:27;11.90;99.90
43581;DHT22;29175;51.030;4.606;2023-03-31T03:17:05;11.70;99.90
43581;DHT22;29175;51.030;4.606;2023-03-31T03:19:32;11.90;99.90
43581;DHT22;29175;51.030;4.606;2023-03-31T03:21:58;12.00;99.90
43581;DHT22;29175;51.030;4.606;2023-03-31T03:24:24;12.20;99.90
43581;DHT22;29175;51.030;4.606;2023-03-31T03:26:54;12.30;99.90
43581;DHT22;29175;51.030;4.606;2023-03-31T03:29:20;12.40;99.90
43581;DHT22;29175;51.030;4.606;2023-03-31T03:31:46;12.40;99.90
43581;DHT22;29175;51.030;4.606;2023-03-31T03:34:12;12.40;99.90
43581;DHT22;29175;51.030;4.606;2023-03-31T03:36:38;12.40;99.90
43581;DHT22;29175;51.030;4.606;2023-03-31T03:39:06;12.30;99.90
43581;DHT22;29175;51.030;4.606;2023-03-31T03:41:32;12.20;99.90
43581;DHT22;29175;51.030;4.606;2023-03-31T03:43:59;12.00;99.90
43581;DHT22;29175;51.030;4.606;2023-03-31T03:46:25;12.10;99.90
43581;DHT22;29175;51.030;4.606;2023-03-31T03:48:51;12.20;99.90
43581;DHT22;29175;51.030;4.606;2023-03-31T03:51:17;12.00;99.90
43581;DHT22;29175;51.030;4.606;2023-03-31T03:53:43;12.00;99.90
43581;DHT22;29175;51.030;4.606;2023-03-31T03:56:09;12.00;99.90
43581;DHT22;29175;51.030;4.606;2023-03-31T03:58:35;12.30;99.90
43581;DHT22;29175;51.030;4.606;2023-03-31T04:01:01;12.10;99.90
43581;DHT22;29175;51.030;4.606;2023-03-31T04:03:27;11.90;99.90
43581;DHT22;29175;51.030;4.606;2023-03-31T04:05:53;11.70;99.90
43581;DHT22;29175;51.030;4.606;2023-03-31T04:08:19;11.70;99.90
43581;DHT22;29175;51.030;4.606;2023-03-31T04:10:45;11.60;99.90
43581;DHT22;29175;51.030;4.606;2023-03-31T04:13:14;11.50;99.90
43581;DHT22;29175;51.030;4.606;2023-03-31T04:15:40;11.50;99.90
43581;DHT22;29175;51.030;4.606;2023-03-31T04:18:09;11.40;99.90
43581;DHT22;29175;51.030;4.606;2023-03-31T04:20:50;11.70;99.90
43581;DHT22;29175;51.030;4.606;2023-03-31T04:23:29;11.70;99.90
43581;DHT22;29175;51.030;4.606;2023-03-31T04:25:55;11.70;99.90
43581;DHT22;29175;51.030;4.606;2023-03-31T04:28:21;11.80;99.90
43581;DHT22;29175;51.030;4.606;2023-03-31T04:30:48;11.70;99.90
43581;DHT22;29175;51.030;4.606;2023-03-31T04:33:14;11.70;99.90
43581;DHT22;29175;51.030;4.606;2023-03-31T04:35:41;11.70;99.90
43581;DHT22;29175;51.030;4.606;2023-03-31T04:38:18;11.50;99.90
43581;DHT22;29175;51.030;4.606;2023-03-31T04:40:46;11.40;99.90
43581;DHT22;29175;51.030;4.606;2023-03-31T04:43:12;11.30;99.90
43581;DHT22;29175;51.030;4.606;2023-03-31T04:45:38;11.40;99.90
43581;DHT22;29175;51.030;4.606;2023-03-31T04:48:04;11.30;99.90
43581;DHT22;29175;51.030;4.606;2023-03-31T04:50:30;11.30;99.90
43581;DHT22;29175;51.030;4.606;2023-03-31T04:52:57;11.40;99.90
43581;DHT22;29175;51.030;4.606;2023-03-31T04:55:23;11.40;99.90
43581;DHT22;29175;51.030;4.606;2023-03-31T04:57:49;11.40;99.90
43581;DHT22;29175;51.030;4.606;2023-03-31T05:00:16;11.50;99.90
43581;DHT22;29175;51.030;4.606;2023-03-31T05:02:42;11.50;99.90
43581;DHT22;29175;51.030;4.606;2023-03-31T05:05:09;11.40;99.90
43581;DHT22;29175;51.030;4.606;2023-03-31T05:07:35;11.50;99.90
43581;DHT22;29175;51.030;4.606;2023-03-31T05:10:01;11.40;99.90
43581;DHT22;29175;51.030;4.606;2023-03-31T05:12:27;11.40;99.90
43581;DHT22;29175;51.030;4.606;2023-03-31T05:14:53;11.60;99.90
43581;DHT22;29175;51.030;4.606;2023-03-31T05:17:19;11.60;99.90
43581;DHT22;29175;51.030;4.606;2023-03-31T05:19:45;11.70;99.90
43581;DHT22;29175;51.030;4.606;2023-03-31T05:22:10;11.60;99.90
43581;DHT22;29175;51.030;4.606;2023-03-31T05:24:36;11.50;99.90
43581;DHT22;29175;51.030;4.606;2023-03-31T05:27:02;11.50;99.90
43581;DHT22;29175;51.030;4.606;2023-03-31T05:29:28;11.40;99.90
43581;DHT22;29175;51.030;4.606;2023-03-31T05:31:54;11.50;99.90
43581;DHT22;29175;51.030;4.606;2023-03-31T05:34:20;11.60;99.90
43581;DHT22;29175;51.030;4.606;2023-03-31T05:36:46;11.60;99.90
43581;DHT22;29175;51.030;4.606;2023-03-31T05:39:13;11.30;99.90
43581;DHT22;29175;51.030;4.606;2023-03-31T05:41:39;11.60;99.90
43581;DHT22;29175;51.030;4.606;2023-03-31T05:44:05;11.50;99.90
43581;DHT22;29175;51.030;4.606;2023-03-31T05:46:31;11.70;99.90
43581;DHT22;29175;51.030;4.606;2023-03-31T05:48:57;11.50;99.90
43581;DHT22;29175;51.030;4.606;2023-03-31T05:51:23;11.60;99.90
43581;DHT22;29175;51.030;4.606;2023-03-31T05:53:49;11.60;99.90
43581;DHT22;29175;51.030;4.606;2023-03-31T05:56:15;11.50;99.90
43581;DHT22;29175;51.030;4.606;2023-03-31T05:58:41;11.60;99.90
43581;DHT22;29175;51.030;4.606;2023-03-31T06:01:10;11.50;99.90
43581;DHT22;29175;51.030;4.606;2023-03-31T06:03:38;11.70;99.90
43581;DHT22;29175;51.030;4.606;2023-03-31T06:06:06;11.60;99.90
43581;DHT22;29175;51.030;4.606;2023-03-31T06:08:33;11.50;99.90
43581;DHT22;29175;51.030;4.606;2023-03-31T06:11:03;11.50;99.90
43581;DHT22;29175;51.030;4.606;2023-03-31T06:13:28;11.50;99.90
43581;DHT22;29175;51.030;4.606;2023-03-31T06:15:56;11.50;99.90
43581;DHT22;29175;51.030;4.606;2023-03-31T06:18:22;11.60;99.90
43581;DHT22;29175;51.030;4.606;2023-03-31T06:20:49;11.70;99.90
43581;DHT22;29175;51.030;4.606;2023-03-31T06:23:15;11.90;99.90
43581;DHT22;29175;51.030;4.606;2023-03-31T06:25:41;11.80;99.90
43581;DHT22;29175;51.030;4.606;2023-03-31T06:28:07;11.90;99.90
43581;DHT22;29175;51.030;4.606;2023-03-31T06:30:34;11.70;99.90
43581;DHT22;29175;51.030;4.606;2023-03-31T06:33:00;11.80;99.90
43581;DHT22;29175;51.030;4.606;2023-03-31T06:35:26;11.80;99.90
43581;DHT22;29175;51.030;4.606;2023-03-31T06:37:52;11.90;99.90
43581;DHT22;29175;51.030;4.606;2023-03-31T06:40:18;12.00;99.90
43581;DHT22;29175;51.030;4.606;2023-03-31T06:42:44;12.10;99.90
43581;DHT22;29175;51.030;4.606;2023-03-31T06:45:09;12.00;99.90
43581;DHT22;29175;51.030;4.606;2023-03-31T06:47:35;12.10;99.90
43581;DHT22;29175;51.030;4.606;2023-03-31T06:50:06;12.10;99.90
43581;DHT22;29175;51.030;4.606;2023-03-31T06:52:32;12.40;99.90
43581;DHT22;29175;51.030;4.606;2023-03-31T06:54:58;12.40;99.90
43581;DHT22;29175;51.030;4.606;2023-03-31T06:57:26;12.40;99.90
43581;DHT22;29175;51.030;4.606;2023-03-31T06:59:51;12.40;99.90
43581;DHT22;29175;51.030;4.606;2023-03-31T07:02:17;12.50;99.90
43581;DHT22;29175;51.030;4.606;2023-03-31T07:04:43;12.50;99.90
43581;DHT22;29175;51.030;4.606;2023-03-31T07:07:09;12.60;99.90
43581;DHT22;29175;51.030;4.606;2023-03-31T07:09:35;12.70;99.90
43581;DHT22;29175;51.030;4.606;2023-03-31T07:12:02;12.70;99.90
43581;DHT22;29175;51.030;4.606;2023-03-31T07:14:30;13.10;99.90
43581;DHT22;29175;51.030;4.606;2023-03-31T07:16:57;13.30;99.90
43581;DHT22;29175;51.030;4.606;2023-03-31T07:19:22;13.40;99.90
43581;DHT22;29175;51.030;4.606;2023-03-31T07:21:49;13.40;99.90
43581;DHT22;29175;51.030;4.606;2023-03-31T07:24:15;13.50;99.90
43581;DHT22;29175;51.030;4.606;2023-03-31T07:26:40;13.60;99.90
43581;DHT22;29175;51.030;4.606;2023-03-31T07:29:06;13.60;99.90
43581;DHT22;29175;51.030;4.606;2023-03-31T07:31:32;13.50;99.90
43581;DHT22;29175;51.030;4.606;2023-03-31T07:33:59;13.40;99.90
43581;DHT22;29175;51.030;4.606;2023-03-31T07:36:25;13.50;99.90
43581;DHT22;29175;51.030;4.606;2023-03-31T07:38:51;13.40;99.90
43581;DHT22;29175;51.030;4.606;2023-03-31T07:41:19;13.40;99.90
43581;DHT22;29175;51.030;4.606;2023-03-31T07:43:45;13.30;99.90
43581;DHT22;29175;51.030;4.606;2023-03-31T07:46:25;13.20;99.90
43581;DHT22;29175;51.030;4.606;2023-03-31T07:48:52;13.20;99.90
43581;DHT22;29175;51.030;4.606;2023-03-31T07:51:21;13.20;99.90
43581;DHT22;29175;51.030;4.606;2023-03-31T07:53:47;13.10;99.90
43581;DHT22;29175;51.030;4.606;2023-03-31T07:56:18;13.20;99.90
43581;DHT22;29175;51.030;4.606;2023-03-31T07:58:44;13.20;99.90
43581;DHT22;29175;51.030;4.606;2023-03-31T08:01:17;13.20;99.90
43581;DHT22;29175;51.030;4.606;2023-03-31T08:03:47;12.90;99.90
43581;DHT22;29175;51.030;4.606;2023-03-31T08:06:17;12.90;99.90
43581;DHT22;29175;51.030;4.606;2023-03-31T08:08:44;12.80;99.90
43581;DHT22;29175;51.030;4.606;2023-03-31T08:11:10;12.90;99.90
43581;DHT22;29175;51.030;4.606;2023-03-31T08:13:36;12.90;99.90
43581;DHT22;29175;51.030;4.606;2023-03-31T08:16:02;12.90;99.90
43581;DHT22;29175;51.030;4.606;2023-03-31T08:18:28;12.80;99.90
43581;DHT22;29175;51.030;4.606;2023-03-31T08:20:54;12.80;99.90
43581;DHT22;29175;51.030;4.606;2023-03-31T08:23:20;12.90;99.90
43581;DHT22;29175;51.030;4.606;2023-03-31T08:25:45;13.10;99.90
43581;DHT22;29175;51.030;4.606;2023-03-31T08:28:12;13.00;99.90
43581;DHT22;29175;51.030;4.606;2023-03-31T08:30:41;13.10;99.90
43581;DHT22;29175;51.030;4.606;2023-03-31T08:33:07;13.20;99.90
43581;DHT22;29175;51.030;4.606;2023-03-31T08:35:35;13.20;99.90
43581;DHT22;29175;51.030;4.606;2023-03-31T08:38:01;13.20;99.90
43581;DHT22;29175;51.030;4.606;2023-03-31T08:40:28;13.30;99.90
43581;DHT22;29175;51.030;4.606;2023-03-31T08:43:05;13.60;99.90
43581;DHT22;29175;51.030;4.606;2023-03-31T08:45:38;13.70;99.90
43581;DHT22;29175;51.030;4.606;2023-03-31T08:48:18;13.80;99.90
43581;DHT22;29175;51.030;4.606;2023-03-31T08:50:52;14.00;99.90
43581;DHT22;29175;51.030;4.606;2023-03-31T08:53:30;14.00;99.90
43581;DHT22;29175;51.030;4.606;2023-03-31T08:55:58;13.70;99.90
43581;DHT22;29175;51.030;4.606;2023-03-31T08:58:42;13.50;99.90
43581;DHT22;29175;51.030;4.606;2023-03-31T09:09:34;14.30;99.90
43581;DHT22;29175;51.030;4.606;2023-03-31T09:12:15;14.40;99.90
43581;DHT22;29175;51.030;4.606;2023-03-31T09:14:53;14.30;99.90
43581;DHT22;29175;51.030;4.606;2023-03-31T09:17:43;14.00;99.90
43581;DHT22;29175;51.030;4.606;2023-03-31T09:20:14;13.90;99.90
43581;DHT22;29175;51.030;4.606;2023-03-31T09:22:49;13.90;99.90
43581;DHT22;29175;51.030;4.606;2023-03-31T09:25:30;14.10;99.90
43581;DHT22;29175;51.030;4.606;2023-03-31T09:27:58;14.10;99.90
43581;DHT22;29175;51.030;4.606;2023-03-31T09:30:30;14.20;99.90
43581;DHT22;29175;51.030;4.606;2023-03-31T09:35:47;14.30;99.90
43581;DHT22;29175;51.030;4.606;2023-03-31T09:38:14;14.60;99.90
43581;DHT22;29175;51.030;4.606;2023-03-31T09:40:41;14.80;99.90
43581;DHT22;29175;51.030;4.606;2023-03-31T09:43:15;15.00;99.90
43581;DHT22;29175;51.030;4.606;2023-03-31T09:45:44;14.90;99.90
43581;DHT22;29175;51.030;4.606;2023-03-31T09:48:13;14.90;99.90
43581;DHT22;29175;51.030;4.606;2023-03-31T09:51:05;14.80;99.90
43581;DHT22;29175;51.030;4.606;2023-03-31T09:53:39;14.50;99.90
43581;DHT22;29175;51.030;4.606;2023-03-31T09:56:08;14.40;99.90
43581;DHT22;29175;51.030;4.606;2023-03-31T09:58:44;14.40;99.90
43581;DHT22;29175;51.030;4.606;2023-03-31T10:01:13;14.40;99.90
43581;DHT22;29175;51.030;4.606;2023-03-31T10:03:51;14.20;99.90
43581;DHT22;29175;51.030;4.606;2023-03-31T10:06:19;14.20;99.90
43581;DHT22;29175;51.030;4.606;2023-03-31T10:08:50;13.90;99.90
43581;DHT22;29175;51.030;4.606;2023-03-31T10:11:16;14.00;99.90
43581;DHT22;29175;51.030;4.606;2023-03-31T10:13:53;13.90;99.90
43581;DHT22;29175;51.030;4.606;2023-03-31T10:18:53;13.90;99.90
43581;DHT22;29175;51.030;4.606;2023-03-31T10:21:27;14.10;99.90
43581;DHT22;29175;51.030;4.606;2023-03-31T10:23:59;13.90;99.90
43581;DHT22;29175;51.030;4.606;2023-03-31T10:26:28;13.80;99.90
43581;DHT22;29175;51.030;4.606;2023-03-31T10:28:54;13.80;99.90
43581;DHT22;29175;51.030;4.606;2023-03-31T10:31:25;13.80;99.90
43581;DHT22;29175;51.030;4.606;2023-03-31T10:33:52;13.80;99.90
43581;DHT22;29175;51.030;4.606;2023-03-31T10:36:28;13.80;99.90
43581;DHT22;29175;51.030;4.606;2023-03-31T10:38:54;13.70;99.90
43581;DHT22;29175;51.030;4.606;2023-03-31T10:41:23;13.70;99.90
43581;DHT22;29175;51.030;4.606;2023-03-31T10:43:55;13.80;99.90
43581;DHT22;29175;51.030;4.606;2023-03-31T10:46:45;13.80;99.90
43581;DHT22;29175;51.030;4.606;2023-03-31T10:51:58;13.60;99.90
43581;DHT22;29175;51.030;4.606;2023-03-31T10:54:26;13.70;99.90
43581;DHT22;29175;51.030;4.606;2023-03-31T10:56:55;13.80;99.90
43581;DHT22;29175;51.030;4.606;2023-03-31T11:11:10;13.90;99.90
43581;DHT22;29175;51.030;4.606;2023-03-31T11:14:13;14.10;99.90
43581;DHT22;29175;51.030;4.606;2023-03-31T11:19:42;14.20;99.90
43581;DHT22;29175;51.030;4.606;2023-03-31T11:23:03;14.20;99.90
43581;DHT22;29175;51.030;4.606;2023-03-31T11:25:22;14.10;99.90
43581;DHT22;29175;51.030;4.606;2023-03-31T11:42:17;14.50;99.90
43581;DHT22;29175;51.030;4.606;2023-03-31T11:44:51;14.60;99.90
43581;DHT22;29175;51.030;4.606;2023-03-31T11:47:23;15.00;99.90
43581;DHT22;29175;51.030;4.606;2023-03-31T11:49:54;15.30;99.90
43581;DHT22;29175;51.030;4.606;2023-03-31T11:52:30;15.50;99.90
43581;DHT22;29175;51.030;4.606;2023-03-31T11:57:35;15.50;99.90
43581;DHT22;29175;51.030;4.606;2023-03-31T12:00:26;15.20;99.90
43581;DHT22;29175;51.030;4.606;2023-03-31T12:03:12;15.30;99.90
43581;DHT22;29175;51.030;4.606;2023-03-31T12:05:46;15.60;99.90
43581;DHT22;29175;51.030;4.606;2023-03-31T12:10:49;15.00;99.90
43581;DHT22;29175;51.030;4.606;2023-03-31T12:21:29;14.70;99.90
43581;DHT22;29175;51.030;4.606;2023-03-31T12:23:56;14.30;99.90
43581;DHT22;29175;51.030;4.606;2023-03-31T12:29:02;13.90;99.90
43581;DHT22;29175;51.030;4.606;2023-03-31T12:31:29;13.60;99.90
43581;DHT22;29175;51.030;4.606;2023-03-31T12:34:07;13.50;99.90
43581;DHT22;29175;51.030;4.606;2023-03-31T12:37:05;13.50;99.90
43581;DHT22;29175;51.030;4.606;2023-03-31T12:39:46;13.50;99.90
43581;DHT22;29175;51.030;4.606;2023-03-31T12:42:43;13.50;99.90
43581;DHT22;29175;51.030;4.606;2023-03-31T12:45:30;13.50;99.90
43581;DHT22;29175;51.030;4.606;2023-03-31T12:51:00;13.30;99.90
43581;DHT22;29175;51.030;4.606;2023-03-31T12:53:57;13.20;99.90
43581;DHT22;29175;51.030;4.606;2023-03-31T12:56:26;13.30;99.90
43581;DHT22;29175;51.030;4.606;2023-03-31T12:58:52;13.30;99.90
43581;DHT22;29175;51.030;4.606;2023-03-31T13:01:21;13.40;99.90
43581;DHT22;29175;51.030;4.606;2023-03-31T13:03:49;13.30;99.90
43581;DHT22;29175;51.030;4.606;2023-03-31T13:09:42;13.40;99.90
43581;DHT22;29175;51.030;4.606;2023-03-31T13:12:20;13.40;99.90
43581;DHT22;29175;51.030;4.606;2023-03-31T13:15:03;13.60;99.90
43581;DHT22;29175;51.030;4.606;2023-03-31T13:17:41;13.60;99.90
43581;DHT22;29175;51.030;4.606;2023-03-31T13:20:33;13.50;99.90
43581;DHT22;29175;51.030;4.606;2023-03-31T13:23:26;13.60;99.90
43581;DHT22;29175;51.030;4.606;2023-03-31T13:25:58;13.70;99.90
43581;DHT22;29175;51.030;4.606;2023-03-31T13:28:43;13.80;99.90
43581;DHT22;29175;51.030;4.606;2023-03-31T13:31:15;13.70;99.90
43581;DHT22;29175;51.030;4.606;2023-03-31T13:33:51;13.60;99.90
43581;DHT22;29175;51.030;4.606;2023-03-31T13:36:42;13.70;99.90
43581;DHT22;29175;51.030;4.606;2023-03-31T13:40:25;13.50;99.90
43581;DHT22;29175;51.030;4.606;2023-03-31T13:59:14;13.00;99.90
43581;DHT22;29175;51.030;4.606;2023-03-31T14:07:58;13.00;99.90
43581;DHT22;29175;51.030;4.606;2023-03-31T14:10:35;13.10;99.90
43581;DHT22;29175;51.030;4.606;2023-03-31T14:13:11;13.00;99.90
43581;DHT22;29175;51.030;4.606;2023-03-31T14:15:44;13.10;99.90
43581;DHT22;29175;51.030;4.606;2023-03-31T14:18:15;13.20;99.90
43581;DHT22;29175;51.030;4.606;2023-03-31T14:20:55;13.20;99.90
43581;DHT22;29175;51.030;4.606;2023-03-31T14:23:29;13.30;99.90
43581;DHT22;29175;51.030;4.606;2023-03-31T14:29:00;13.50;99.90
43581;DHT22;29175;51.030;4.606;2023-03-31T14:37:18;13.30;99.90
43581;DHT22;29175;51.030;4.606;2023-03-31T14:39:53;13.40;99.90
43581;DHT22;29175;51.030;4.606;2023-03-31T14:42:39;13.60;99.90
43581;DHT22;29175;51.030;4.606;2023-03-31T14:45:15;13.50;99.90
43581;DHT22;29175;51.030;4.606;2023-03-31T14:47:41;13.50;99.90
43581;DHT22;29175;51.030;4.606;2023-03-31T14:50:17;13.40;99.90
43581;DHT22;29175;51.030;4.606;2023-03-31T14:52:50;13.20;99.90
43581;DHT22;29175;51.030;4.606;2023-03-31T14:55:21;13.20;99.90
43581;DHT22;29175;51.030;4.606;2023-03-31T14:57:49;13.20;99.90
43581;DHT22;29175;51.030;4.606;2023-03-31T15:00:27;13.20;99.90
43581;DHT22;29175;51.030;4.606;2023-03-31T15:02:56;13.20;99.90
43581;DHT22;29175;51.030;4.606;2023-03-31T15:05:36;13.30;99.90
43581;DHT22;29175;51.030;4.606;2023-03-31T15:08:05;13.50;99.90
43581;DHT22;29175;51.030;4.606;2023-03-31T15:10:36;13.50;99.90
43581;DHT22;29175;51.030;4.606;2023-03-31T15:13:16;13.60;99.90
43581;DHT22;29175;51.030;4.606;2023-03-31T15:15:43;13.60;99.90
43581;DHT22;29175;51.030;4.606;2023-03-31T15:18:15;13.50;99.90
43581;DHT22;29175;51.030;4.606;2023-03-31T15:20:43;13.40;99.90
43581;DHT22;29175;51.030;4.606;2023-03-31T15:23:26;13.20;99.90
43581;DHT22;29175;51.030;4.606;2023-03-31T15:26:04;13.00;99.90
43581;DHT22;29175;51.030;4.606;2023-03-31T15:28:38;12.80;99.90
43581;DHT22;29175;51.030;4.606;2023-03-31T15:31:07;12.90;99.90
43581;DHT22;29175;51.030;4.606;2023-03-31T15:33:34;13.00;99.90
43581;DHT22;29175;51.030;4.606;2023-03-31T15:36:06;12.90;99.90
43581;DHT22;29175;51.030;4.606;2023-03-31T15:38:32;12.90;99.90
43581;DHT22;29175;51.030;4.606;2023-03-31T15:40:59;12.80;99.90
43581;DHT22;29175;51.030;4.606;2023-03-31T15:43:43;12.80;99.90
43581;DHT22;29175;51.030;4.606;2023-03-31T15:49:28;13.00;99.90
43581;DHT22;29175;51.030;4.606;2023-03-31T15:51:54;13.10;99.90
43581;DHT22;29175;51.030;4.606;2023-03-31T15:54:40;13.00;99.90
43581;DHT22;29175;51.030;4.606;2023-03-31T15:57:07;12.90;99.90
43581;DHT22;29175;51.030;4.606;2023-03-31T15:59:46;13.10;99.90
43581;DHT22;29175;51.030;4.606;2023-03-31T16:02:37;13.10;99.90
43581;DHT22;29175;51.030;4.606;2023-03-31T16:05:00;13.10;99.90
43581;DHT22;29175;51.030;4.606;2023-03-31T16:07:33;13.10;99.90
43581;DHT22;29175;51.030;4.606;2023-03-31T16:12:42;12.90;99.90
43581;DHT22;29175;51.030;4.606;2023-03-31T16:15:16;13.00;99.90
43581;DHT22;29175;51.030;4.606;2023-03-31T16:17:52;12.90;99.90
43581;DHT22;29175;51.030;4.606;2023-03-31T16:20:31;12.80;99.90
43581;DHT22;29175;51.030;4.606;2023-03-31T16:23:02;12.70;99.90
43581;DHT22;29175;51.030;4.606;2023-03-31T16:25:38;12.40;99.90
43581;DHT22;29175;51.030;4.606;2023-03-31T16:28:05;12.20;99.90
43581;DHT22;29175;51.030;4.606;2023-03-31T16:30:40;12.00;99.90
43581;DHT22;29175;51.030;4.606;2023-03-31T16:33:13;11.90;99.90
43581;DHT22;29175;51.030;4.606;2023-03-31T16:35:47;11.90;99.90
43581;DHT22;29175;51.030;4.606;2023-03-31T16:38:13;11.80;99.90
43581;DHT22;29175;51.030;4.606;2023-03-31T16:40:43;11.70;99.90
43581;DHT22;29175;51.030;4.606;2023-03-31T16:43:16;11.80;99.90
43581;DHT22;29175;51.030;4.606;2023-03-31T16:45:45;11.70;99.90
43581;DHT22;29175;51.030;4.606;2023-03-31T16:48:12;11.60;99.90
43581;DHT22;29175;51.030;4.606;2023-03-31T16:50:42;11.70;99.90
43581;DHT22;29175;51.030;4.606;2023-03-31T16:53:09;11.70;99.90
43581;DHT22;29175;51.030;4.606;2023-03-31T16:55:36;11.70;99.90
43581;DHT22;29175;51.030;4.606;2023-03-31T16:58:02;11.70;99.90
43581;DHT22;29175;51.030;4.606;2023-03-31T17:00:30;11.70;99.90
43581;DHT22;29175;51.030;4.606;2023-03-31T17:02:56;11.70;99.90
43581;DHT22;29175;51.030;4.606;2023-03-31T17:05:23;11.80;99.90
43581;DHT22;29175;51.030;4.606;2023-03-31T17:07:50;11.70;99.90
43581;DHT22;29175;51.030;4.606;2023-03-31T17:10:16;11.70;99.90
43581;DHT22;29175;51.030;4.606;2023-03-31T17:12:42;11.70;99.90
43581;DHT22;29175;51.030;4.606;2023-03-31T17:15:08;11.70;99.90
43581;DHT22;29175;51.030;4.606;2023-03-31T17:17:34;11.60;99.90
43581;DHT22;29175;51.030;4.606;2023-03-31T17:20:02;11.50;99.90
43581;DHT22;29175;51.030;4.606;2023-03-31T17:22:28;11.40;99.90
43581;DHT22;29175;51.030;4.606;2023-03-31T17:24:54;11.30;99.90
43581;DHT22;29175;51.030;4.606;2023-03-31T17:27:27;11.30;99.90
43581;DHT22;29175;51.030;4.606;2023-03-31T17:29:53;11.40;99.90
43581;DHT22;29175;51.030;4.606;2023-03-31T17:32:19;11.40;99.90
43581;DHT22;29175;51.030;4.606;2023-03-31T17:34:45;11.30;99.90
43581;DHT22;29175;51.030;4.606;2023-03-31T17:37:16;11.40;99.90
43581;DHT22;29175;51.030;4.606;2023-03-31T17:39:43;11.40;99.90
43581;DHT22;29175;51.030;4.606;2023-03-31T17:42:10;11.20;99.90
43581;DHT22;29175;51.030;4.606;2023-03-31T17:44:38;11.20;99.90
43581;DHT22;29175;51.030;4.606;2023-03-31T17:47:05;11.10;99.90
43581;DHT22;29175;51.030;4.606;2023-03-31T17:49:31;11.10;99.90
43581;DHT22;29175;51.030;4.606;2023-03-31T17:51:58;11.10;99.90
43581;DHT22;29175;51.030;4.606;2023-03-31T17:54:24;11.20;99.90
43581;DHT22;29175;51.030;4.606;2023-03-31T17:56:50;11.20;99.90
43581;DHT22;29175;51.030;4.606;2023-03-31T17:59:17;11.30;99.90
43581;DHT22;29175;51.030;4.606;2023-03-31T18:01:44;11.30;99.90
43581;DHT22;29175;51.030;4.606;2023-03-31T18:04:11;11.20;99.90
43581;DHT22;29175;51.030;4.606;2023-03-31T18:06:38;11.30;99.90
43581;DHT22;29175;51.030;4.606;2023-03-31T18:09:04;11.30;99.90
43581;DHT22;29175;51.030;4.606;2023-03-31T18:11:30;11.30;99.90
43581;DHT22;29175;51.030;4.606;2023-03-31T18:13:57;11.20;99.90
43581;DHT22;29175;51.030;4.606;2023-03-31T18:16:27;11.20;99.90